logo
Search for airport 
image banner adimage banner adimage banner ad
image banner ad

BISV - Skalavatn

Located in Skalavatn, Iceland

ICAO - BISV, IATA -

Data provided by Airmate  

General information

Coordinates: N64°6'57" W18°47'0"
Elevation is 1920 feet MSL.
 
View others Airports in South

Operational data

Special qualification required
Current time UTC:
Current local time:
Weather at : - ( 0 km )
METAR: LMML 130545Z 06012KT 9999 FEW014 17/15 Q1022 NOSIG
View NOTAMs / SUP AIP / TFR affecting this airport [VIEW]
Communications frequencies: [VIEW]

Runways:

RWY identifierQFULength (ft)Width (ft)SurfaceLDA (ft)
062297115GRAVE
242297115GRAVE

Airport contact information

Address: Skalavatn Iceland

Satellite view of BISV